Terminal Aerodrome Forecast
Issued by NWS

Home | Current Version | Previous Version | Text Only | Print | Product List | Glossary On
Versions: 1 2 3 4 5 6 7 8 9 10 11 12 13 14 15 16 17 18
711
FTUS43 KJKL 280841 AAA
TAFSJS
TAF AMD
KSJS 280841Z 2809/2906 VRB04KT 6SM BR VCSH SCT040 OVC110
     FM281500 VRB03KT 3SM SHRA BR VCTS SCT015CB OVC040
     FM281900 27006KT 3SM +SHRA BR VCTS SCT008CB OVC015
     FM290100 29004KT 1SM +SHRA BR VCTS BKN008CB OVC010
     FM290400 VRB03KT 3SM +SHRA BR VCTS BKN003CB OVC008
      AMD NOT SKED=

USA.gov is the U.S. government's official web portal to all federal, state and local government web resources and services.